createdAt,value
2018-07-31T00:00:01.040Z,65.80
2018-07-31T00:00:34.847Z,65.90
2018-07-31T00:01:08.043Z,65.80
2018-07-31T00:01:41.069Z,65.60
2018-07-31T00:02:14.124Z,65.90
2018-07-31T00:02:47.183Z,65.90
2018-07-31T00:03:20.218Z,66.10
2018-07-31T00:03:53.245Z,65.80
2018-07-31T00:04:26.844Z,65.60
2018-07-31T00:04:59.874Z,66.90
2018-07-31T00:05:32.936Z,65.80
2018-07-31T00:06:05.990Z,66.10
2018-07-31T00:06:39.804Z,65.80
2018-07-31T00:07:12.838Z,65.80
2018-07-31T00:07:45.889Z,65.80
2018-07-31T00:08:18.911Z,65.60
2018-07-31T00:08:51.947Z,65.80
2018-07-31T00:09:24.991Z,65.60
2018-07-31T00:09:58.012Z,65.70
2018-07-31T00:10:31.102Z,65.70
2018-07-31T00:11:04.844Z,66.00
2018-07-31T00:11:38.009Z,66.00
2018-07-31T00:12:11.187Z,65.90
2018-07-31T00:12:45.022Z,65.90
2018-07-31T00:13:18.057Z,65.80
2018-07-31T00:13:51.082Z,65.90
2018-07-31T00:14:24.884Z,66.10
2018-07-31T00:14:58.679Z,66.20
2018-07-31T00:15:32.479Z,66.20
2018-07-31T00:16:06.276Z,66.20
2018-07-31T00:16:39.303Z,66.20
2018-07-31T00:17:12.331Z,66.30
2018-07-31T00:17:45.386Z,66.30
2018-07-31T00:18:19.180Z,66.20
2018-07-31T00:18:53.651Z,66.30
2018-07-31T00:19:27.136Z,66.30
2018-07-31T00:20:00.169Z,66.40
2018-07-31T00:20:33.203Z,66.20
2018-07-31T00:21:06.240Z,66.10
2018-07-31T00:21:39.267Z,66.40
2018-07-31T00:22:13.059Z,66.30
2018-07-31T00:22:46.871Z,66.30
2018-07-31T00:23:19.900Z,66.30
2018-07-31T00:23:52.937Z,66.40
2018-07-31T00:24:25.963Z,66.70
2018-07-31T00:24:59.768Z,67.00
2018-07-31T00:25:33.574Z,66.50
2018-07-31T00:26:06.611Z,66.40
2018-07-31T00:26:39.651Z,66.50
2018-07-31T00:27:12.674Z,66.40
2018-07-31T00:27:46.520Z,66.60
2018-07-31T00:28:19.532Z,66.60
2018-07-31T00:28:52.566Z,66.60
2018-07-31T00:29:25.582Z,66.80
2018-07-31T00:29:58.606Z,66.60
2018-07-31T00:30:31.641Z,66.80
2018-07-31T00:31:04.667Z,66.80
2018-07-31T00:31:38.489Z,66.70
2018-07-31T00:32:11.522Z,66.70
2018-07-31T00:32:44.567Z,66.90
2018-07-31T00:33:18.351Z,66.80
2018-07-31T00:33:51.372Z,66.80
2018-07-31T00:34:24.408Z,66.70
2018-07-31T00:34:58.215Z,66.90
2018-07-31T00:35:31.238Z,66.90
2018-07-31T00:36:04.287Z,66.80
2018-07-31T00:36:37.357Z,66.80
2018-07-31T00:37:10.388Z,66.80
2018-07-31T00:37:43.519Z,66.80
2018-07-31T00:38:16.548Z,66.90
2018-07-31T00:38:49.567Z,67.00
2018-07-31T00:39:22.607Z,67.00
2018-07-31T00:39:56.412Z,66.80
2018-07-31T00:40:29.460Z,66.80
2018-07-31T00:41:02.480Z,66.70
2018-07-31T00:41:36.208Z,66.80
2018-07-31T00:42:09.219Z,66.80
2018-07-31T00:42:42.251Z,67.00
2018-07-31T00:43:15.319Z,66.70
2018-07-31T00:43:48.360Z,66.80
2018-07-31T00:44:21.441Z,66.60
2018-07-31T00:44:54.484Z,66.80
2018-07-31T00:45:28.283Z,66.80
2018-07-31T00:46:01.311Z,66.80
2018-07-31T00:46:34.331Z,66.80
2018-07-31T00:47:08.347Z,66.50
2018-07-31T00:47:41.370Z,66.50
2018-07-31T00:48:14.428Z,66.60
2018-07-31T00:48:47.475Z,66.50
2018-07-31T00:49:20.497Z,66.30
2018-07-31T00:49:53.833Z,66.60
2018-07-31T00:50:26.856Z,66.40
2018-07-31T00:50:59.975Z,66.40
2018-07-31T00:51:32.999Z,66.50
2018-07-31T00:52:06.123Z,66.40
2018-07-31T00:52:39.187Z,67.30
2018-07-31T00:53:12.227Z,66.30
2018-07-31T00:53:45.259Z,66.30
2018-07-31T00:54:18.288Z,66.40
2018-07-31T00:54:52.095Z,66.30
2018-07-31T00:55:25.119Z,66.40
2018-07-31T00:55:58.183Z,66.60
2018-07-31T00:56:31.360Z,66.70
2018-07-31T00:57:04.409Z,66.70
2018-07-31T00:57:37.528Z,66.70
2018-07-31T00:58:10.574Z,66.80
2018-07-31T00:58:43.612Z,67.00
2018-07-31T00:59:17.399Z,67.10
2018-07-31T00:59:51.201Z,67.10
2018-07-31T01:00:24.999Z,67.20
2018-07-31T01:00:58.801Z,67.10
2018-07-31T01:01:32.107Z,67.10
2018-07-31T01:02:05.100Z,66.80
2018-07-31T01:02:38.148Z,67.30
2018-07-31T01:03:11.228Z,67.10
2018-07-31T01:03:44.267Z,67.10
2018-07-31T01:04:18.051Z,68.10
2018-07-31T01:04:51.898Z,67.10
2018-07-31T01:05:24.923Z,67.10
2018-07-31T01:05:57.952Z,67.00
2018-07-31T01:06:31.759Z,67.30
2018-07-31T01:07:04.780Z,67.30
2018-07-31T01:07:37.846Z,67.40
2018-07-31T01:08:10.870Z,67.20
2018-07-31T01:08:43.900Z,67.60
2018-07-31T01:09:16.931Z,68.30
2018-07-31T01:09:49.952Z,67.60
2018-07-31T01:10:23.019Z,67.50
2018-07-31T01:10:56.861Z,67.60
2018-07-31T01:11:30.599Z,68.00
2018-07-31T01:12:04.398Z,68.50
2018-07-31T01:12:38.191Z,67.70
2018-07-31T01:13:12.000Z,67.70
2018-07-31T01:13:45.037Z,67.70
2018-07-31T01:14:18.079Z,67.70
2018-07-31T01:14:51.124Z,67.50
2018-07-31T01:15:24.180Z,67.60
2018-07-31T01:15:58.031Z,67.60
2018-07-31T01:16:31.056Z,67.60
2018-07-31T01:17:04.075Z,67.90
2018-07-31T01:17:37.232Z,67.80
2018-07-31T01:18:10.303Z,68.00
2018-07-31T01:18:46.267Z,68.00
2018-07-31T01:19:19.290Z,68.00
2018-07-31T01:19:52.352Z,68.00
2018-07-31T01:20:25.380Z,68.10
2018-07-31T01:20:58.418Z,68.10
2018-07-31T01:21:31.545Z,68.10
2018-07-31T01:22:04.710Z,68.10
2018-07-31T01:22:37.773Z,68.10
2018-07-31T01:23:10.812Z,68.20
2018-07-31T01:23:45.360Z,68.30
2018-07-31T01:24:18.389Z,68.30
2018-07-31T01:24:52.199Z,68.40
2018-07-31T01:25:25.991Z,68.20
2018-07-31T01:26:00.956Z,68.40
2018-07-31T01:26:33.989Z,68.40
2018-07-31T01:27:07.792Z,69.30
2018-07-31T01:27:40.820Z,68.50
2018-07-31T01:28:13.851Z,68.30
2018-07-31T01:28:46.933Z,68.40
2018-07-31T01:29:19.951Z,68.30
2018-07-31T01:29:52.986Z,68.40
2018-07-31T01:30:26.020Z,68.50
2018-07-31T01:30:59.812Z,68.40
2018-07-31T01:31:33.620Z,68.40
2018-07-31T01:32:06.675Z,68.40
2018-07-31T01:32:39.703Z,68.40
2018-07-31T01:33:12.739Z,68.30
2018-07-31T01:33:47.340Z,68.40
2018-07-31T01:34:21.143Z,68.40
2018-07-31T01:34:54.175Z,68.40
2018-07-31T01:35:27.227Z,68.30
2018-07-31T01:36:01.242Z,68.20
2018-07-31T01:36:35.033Z,68.40
2018-07-31T01:37:08.072Z,68.40
2018-07-31T01:37:41.253Z,68.40
2018-07-31T01:38:14.279Z,68.60
2018-07-31T01:38:47.331Z,68.60
2018-07-31T01:39:21.129Z,68.60
2018-07-31T01:39:54.161Z,68.50
2018-07-31T01:40:27.201Z,68.70
2018-07-31T01:41:00.245Z,68.60
2018-07-31T01:41:33.272Z,68.70
2018-07-31T01:42:07.163Z,68.70
2018-07-31T01:42:40.951Z,68.70
2018-07-31T01:43:14.744Z,69.80
2018-07-31T01:43:47.792Z,68.80
2018-07-31T01:44:20.825Z,68.70
2018-07-31T01:44:53.863Z,68.70
2018-07-31T01:45:26.890Z,68.80
2018-07-31T01:46:00.714Z,68.80
2018-07-31T01:46:33.704Z,68.80
2018-07-31T01:47:06.740Z,68.90
2018-07-31T01:47:39.766Z,69.00
2018-07-31T01:48:13.551Z,68.80
2018-07-31T01:48:47.363Z,68.80
2018-07-31T01:49:21.162Z,68.80
2018-07-31T01:49:54.199Z,68.70
2018-07-31T01:50:27.222Z,68.70
2018-07-31T01:51:00.277Z,68.80
2018-07-31T01:51:34.080Z,68.70
2018-07-31T01:52:07.105Z,68.70
2018-07-31T01:52:40.138Z,68.70
2018-07-31T01:53:13.163Z,69.50
2018-07-31T01:53:46.215Z,68.70
2018-07-31T01:54:19.248Z,68.80
2018-07-31T01:54:53.037Z,68.80
2018-07-31T01:55:26.076Z,68.70
2018-07-31T01:55:59.120Z,68.70
2018-07-31T01:56:32.151Z,68.70
2018-07-31T01:57:05.254Z,68.70
2018-07-31T01:57:38.308Z,68.60
2018-07-31T01:58:11.409Z,68.70
2018-07-31T01:58:44.452Z,68.80
2018-07-31T01:59:18.239Z,68.80
2018-07-31T01:59:51.280Z,68.70
2018-07-31T02:00:24.296Z,68.80
2018-07-31T02:00:58.084Z,68.90
2018-07-31T02:01:32.153Z,68.90
2018-07-31T02:02:05.140Z,68.90
2018-07-31T02:02:38.192Z,68.70
2018-07-31T02:03:11.228Z,68.80
2018-07-31T02:03:44.247Z,69.80
2018-07-31T02:04:17.308Z,68.90
2018-07-31T02:04:50.343Z,68.80
2018-07-31T02:05:23.364Z,68.80
2018-07-31T02:05:57.167Z,69.00
2018-07-31T02:06:30.204Z,69.00
2018-07-31T02:07:03.237Z,68.90
2018-07-31T02:07:36.341Z,68.90
2018-07-31T02:08:09.338Z,69.00
2018-07-31T02:08:42.384Z,68.70
2018-07-31T02:09:15.415Z,69.00
2018-07-31T02:09:49.803Z,69.10
2018-07-31T02:10:22.824Z,69.00
2018-07-31T02:10:56.612Z,69.20
2018-07-31T02:11:29.643Z,69.20
2018-07-31T02:12:03.431Z,69.30
2018-07-31T02:12:36.470Z,69.30
2018-07-31T02:13:10.259Z,69.30
2018-07-31T02:13:44.081Z,69.30
2018-07-31T02:14:17.252Z,69.30
2018-07-31T02:14:50.291Z,69.10
2018-07-31T02:15:24.088Z,69.30
2018-07-31T02:15:57.209Z,69.20
2018-07-31T02:16:30.227Z,69.50
2018-07-31T02:17:03.263Z,69.30
2018-07-31T02:17:36.286Z,70.30
2018-07-31T02:18:10.069Z,69.50
2018-07-31T02:18:43.135Z,69.40
2018-07-31T02:19:16.164Z,69.50
2018-07-31T02:19:49.214Z,69.60
2018-07-31T02:20:23.044Z,69.50
2018-07-31T02:20:56.062Z,69.50
2018-07-31T02:21:29.096Z,69.30
2018-07-31T02:22:02.127Z,69.30
2018-07-31T02:22:35.911Z,69.20
2018-07-31T02:23:09.700Z,69.60
2018-07-31T02:23:43.532Z,69.50
2018-07-31T02:24:16.552Z,69.50
2018-07-31T02:24:49.588Z,69.50
2018-07-31T02:25:22.625Z,69.60
2018-07-31T02:25:56.431Z,69.70
2018-07-31T02:26:29.476Z,69.60
2018-07-31T02:27:02.513Z,69.60
2018-07-31T02:27:35.539Z,69.70
2018-07-31T02:28:09.643Z,69.70
2018-07-31T02:28:43.401Z,69.70
2018-07-31T02:29:17.143Z,69.80
2018-07-31T02:29:50.168Z,69.80
2018-07-31T02:30:23.219Z,69.80
2018-07-31T02:30:56.236Z,69.80
2018-07-31T02:31:29.573Z,69.70
2018-07-31T02:32:02.628Z,69.60
2018-07-31T02:32:35.700Z,69.90
2018-07-31T02:33:08.999Z,69.70
2018-07-31T02:33:42.035Z,70.00
2018-07-31T02:34:15.835Z,70.00
2018-07-31T02:34:48.871Z,70.00
2018-07-31T02:35:22.207Z,69.90
2018-07-31T02:35:55.236Z,69.90
2018-07-31T02:36:28.287Z,69.90
2018-07-31T02:37:02.185Z,69.90
2018-07-31T02:37:35.184Z,69.90
2018-07-31T02:38:08.232Z,69.90
2018-07-31T02:38:41.265Z,70.00
2018-07-31T02:39:14.324Z,70.10
2018-07-31T02:39:48.119Z,70.10
2018-07-31T02:40:21.925Z,70.00
2018-07-31T02:40:54.951Z,70.00
2018-07-31T02:41:27.981Z,70.10
2018-07-31T02:42:01.015Z,70.20
2018-07-31T02:42:34.046Z,70.20
2018-07-31T02:43:07.071Z,70.20
2018-07-31T02:43:40.196Z,70.30
2018-07-31T02:44:13.265Z,70.40
2018-07-31T02:44:46.288Z,70.30
2018-07-31T02:45:19.320Z,70.40
2018-07-31T02:45:52.349Z,70.50
2018-07-31T02:46:25.371Z,70.50
2018-07-31T02:46:58.436Z,70.50
2018-07-31T02:47:32.236Z,70.80
2018-07-31T02:48:05.282Z,70.80
2018-07-31T02:48:39.067Z,70.80
2018-07-31T02:49:12.901Z,70.70
2018-07-31T02:49:46.021Z,70.90
2018-07-31T02:50:18.995Z,71.00
2018-07-31T02:50:52.432Z,70.80
2018-07-31T02:51:25.641Z,70.80
2018-07-31T02:51:58.685Z,70.80
2018-07-31T02:52:31.707Z,71.00
2018-07-31T02:53:04.754Z,70.90
2018-07-31T02:53:37.814Z,70.90
2018-07-31T02:54:10.860Z,70.80
2018-07-31T02:54:43.949Z,70.90
2018-07-31T02:55:16.989Z,70.90
2018-07-31T02:55:50.016Z,70.90
2018-07-31T02:56:23.043Z,70.90
2018-07-31T02:56:56.833Z,70.90
2018-07-31T02:57:30.619Z,71.20
2018-07-31T02:58:04.432Z,71.00
2018-07-31T02:58:37.452Z,71.00
2018-07-31T02:59:10.495Z,71.00
2018-07-31T02:59:43.519Z,70.90
2018-07-31T03:00:16.549Z,70.90
2018-07-31T03:00:49.600Z,71.00
2018-07-31T03:01:22.628Z,70.90
2018-07-31T03:01:55.650Z,71.00
2018-07-31T03:02:29.455Z,71.00
2018-07-31T03:03:02.485Z,71.00
2018-07-31T03:03:36.173Z,71.00
2018-07-31T03:04:09.208Z,71.20
2018-07-31T03:04:42.233Z,71.20
2018-07-31T03:05:15.259Z,71.20
2018-07-31T03:05:48.531Z,71.20
2018-07-31T03:06:21.564Z,71.30
2018-07-31T03:06:54.601Z,71.20
2018-07-31T03:07:27.664Z,71.40
2018-07-31T03:08:01.159Z,71.20
2018-07-31T03:08:34.917Z,71.30
2018-07-31T03:09:07.972Z,71.20
2018-07-31T03:09:41.773Z,71.40
2018-07-31T03:10:15.568Z,71.50
2018-07-31T03:10:49.364Z,71.50
2018-07-31T03:11:24.023Z,71.50
2018-07-31T03:11:57.059Z,71.50
2018-07-31T03:12:30.084Z,71.40
2018-07-31T03:13:03.130Z,71.60
2018-07-31T03:13:36.192Z,71.70
2018-07-31T03:14:09.267Z,71.60
2018-07-31T03:14:42.291Z,71.70
2018-07-31T03:15:15.327Z,71.70
2018-07-31T03:15:48.356Z,71.70
2018-07-31T03:16:22.161Z,71.90
2018-07-31T03:16:55.956Z,71.90
2018-07-31T03:17:29.017Z,71.90
2018-07-31T03:18:02.040Z,71.90
2018-07-31T03:18:35.100Z,71.90
2018-07-31T03:19:08.127Z,72.00
2018-07-31T03:19:41.158Z,71.90
2018-07-31T03:20:14.181Z,71.90
2018-07-31T03:20:47.220Z,71.90
2018-07-31T03:21:20.240Z,72.00
2018-07-31T03:21:53.268Z,72.10
2018-07-31T03:22:26.311Z,72.00
2018-07-31T03:22:59.339Z,72.10
2018-07-31T03:23:32.352Z,72.20
2018-07-31T03:24:05.392Z,72.20
2018-07-31T03:24:38.726Z,73.30
2018-07-31T03:25:11.745Z,72.30
2018-07-31T03:25:44.791Z,72.30
2018-07-31T03:26:17.965Z,72.40
2018-07-31T03:26:50.994Z,72.20
2018-07-31T03:27:24.782Z,72.40
2018-07-31T03:27:57.813Z,72.40
2018-07-31T03:28:30.836Z,72.50
2018-07-31T03:29:04.639Z,72.50
2018-07-31T03:29:38.440Z,72.50
2018-07-31T03:30:11.464Z,72.50
2018-07-31T03:30:44.498Z,72.50
2018-07-31T03:31:17.538Z,72.50
2018-07-31T03:31:50.572Z,72.60
2018-07-31T03:32:23.603Z,72.50
2018-07-31T03:32:56.647Z,72.40
2018-07-31T03:33:29.663Z,72.40
2018-07-31T03:34:03.711Z,72.40
2018-07-31T03:34:36.776Z,72.40
2018-07-31T03:35:10.571Z,72.50
2018-07-31T03:35:43.923Z,72.50
2018-07-31T03:36:16.976Z,72.50
2018-07-31T03:36:50.810Z,72.40
2018-07-31T03:37:23.836Z,72.40
2018-07-31T03:37:57.079Z,72.50
2018-07-31T03:38:30.107Z,72.50
2018-07-31T03:39:03.145Z,72.50
2018-07-31T03:39:36.196Z,72.50
2018-07-31T03:40:09.236Z,72.50
2018-07-31T03:40:42.275Z,72.50
2018-07-31T03:41:15.303Z,72.50
2018-07-31T03:41:49.060Z,72.40
2018-07-31T03:42:22.091Z,72.40
2018-07-31T03:42:55.126Z,72.40
2018-07-31T03:43:28.160Z,72.40
2018-07-31T03:44:01.200Z,72.40
2018-07-31T03:44:36.011Z,72.40
2018-07-31T03:45:09.016Z,72.50
2018-07-31T03:45:42.070Z,72.50
2018-07-31T03:46:15.664Z,72.50
2018-07-31T03:46:48.711Z,72.50
2018-07-31T03:47:21.741Z,72.50
2018-07-31T03:47:54.768Z,72.60
2018-07-31T03:48:27.795Z,72.60
2018-07-31T03:49:00.828Z,72.70
2018-07-31T03:49:34.625Z,72.60
2018-07-31T03:50:08.577Z,72.50
2018-07-31T03:50:41.531Z,72.60
2018-07-31T03:51:14.595Z,72.60
2018-07-31T03:51:47.624Z,72.60
2018-07-31T03:52:20.647Z,72.70
2018-07-31T03:52:53.691Z,72.60
2018-07-31T03:53:26.720Z,72.70
2018-07-31T03:54:00.520Z,72.70
2018-07-31T03:54:33.563Z,72.70
2018-07-31T03:55:06.604Z,72.70
2018-07-31T03:55:39.679Z,72.90
2018-07-31T03:56:12.701Z,72.80
2018-07-31T03:56:45.731Z,72.70
2018-07-31T03:57:19.457Z,73.70
2018-07-31T03:57:52.507Z,72.80
2018-07-31T03:58:25.544Z,72.80
2018-07-31T03:58:58.570Z,72.90
2018-07-31T03:59:31.620Z,72.80
2018-07-31T04:00:04.652Z,72.90
2018-07-31T04:00:37.684Z,72.90
2018-07-31T04:01:10.934Z,72.80
2018-07-31T04:01:43.979Z,73.00
2018-07-31T04:02:17.047Z,73.00
2018-07-31T04:02:50.072Z,73.10
2018-07-31T04:03:23.107Z,73.10
2018-07-31T04:03:56.147Z,73.10
2018-07-31T04:04:29.199Z,73.10
2018-07-31T04:05:02.261Z,73.00
2018-07-31T04:05:35.487Z,74.10
2018-07-31T04:06:09.369Z,73.00
2018-07-31T04:06:42.402Z,73.00
2018-07-31T04:07:15.431Z,73.10
2018-07-31T04:07:48.466Z,73.20
2018-07-31T04:08:21.530Z,73.10
2018-07-31T04:08:54.704Z,73.20
2018-07-31T04:09:27.728Z,73.20
2018-07-31T04:10:00.764Z,73.10
2018-07-31T04:10:33.799Z,73.10
2018-07-31T04:11:06.831Z,73.20
2018-07-31T04:11:39.870Z,73.10
2018-07-31T04:12:12.887Z,73.20
2018-07-31T04:12:45.931Z,73.20
2018-07-31T04:13:19.091Z,74.10
2018-07-31T04:13:52.983Z,73.30
2018-07-31T04:14:25.976Z,73.40
2018-07-31T04:14:59.018Z,73.40
2018-07-31T04:15:32.808Z,73.50
2018-07-31T04:16:06.605Z,73.50
2018-07-31T04:16:39.643Z,73.50
2018-07-31T04:17:12.962Z,73.40
2018-07-31T04:17:45.908Z,73.60
2018-07-31T04:18:18.950Z,73.60
2018-07-31T04:18:51.972Z,73.60
2018-07-31T04:19:25.004Z,73.50
2018-07-31T04:19:58.060Z,73.60
2018-07-31T04:20:31.243Z,73.20
2018-07-31T04:21:04.279Z,73.60
2018-07-31T04:21:37.307Z,73.70
2018-07-31T04:22:10.328Z,73.70
2018-07-31T04:22:44.128Z,73.80
2018-07-31T04:23:17.143Z,73.80
2018-07-31T04:23:50.187Z,73.70
2018-07-31T04:24:23.220Z,73.80
2018-07-31T04:24:56.543Z,73.90
2018-07-31T04:25:29.568Z,73.80
2018-07-31T04:26:02.610Z,73.90
2018-07-31T04:26:35.640Z,73.90
2018-07-31T04:27:09.436Z,74.00
2018-07-31T04:27:42.471Z,74.00
2018-07-31T04:28:15.520Z,74.10
2018-07-31T04:28:48.548Z,75.20
2018-07-31T04:29:21.672Z,74.30
2018-07-31T04:29:54.699Z,74.30
2018-07-31T04:30:27.811Z,74.30
2018-07-31T04:31:00.866Z,74.40
2018-07-31T04:31:33.910Z,74.40
2018-07-31T04:32:06.950Z,74.40
2018-07-31T04:32:39.991Z,74.40
2018-07-31T04:33:13.019Z,74.40
2018-07-31T04:33:46.044Z,74.30
2018-07-31T04:34:19.086Z,74.50
2018-07-31T04:34:52.122Z,74.40
2018-07-31T04:35:25.139Z,74.40
2018-07-31T04:35:58.229Z,74.60
2018-07-31T04:36:31.201Z,74.70
2018-07-31T04:37:04.231Z,74.60
2018-07-31T04:37:37.266Z,74.70
2018-07-31T04:38:10.299Z,74.80
2018-07-31T04:38:43.333Z,74.80
2018-07-31T04:39:16.363Z,74.80
2018-07-31T04:39:49.400Z,74.50
2018-07-31T04:40:22.436Z,74.60
2018-07-31T04:40:55.472Z,74.60
2018-07-31T04:41:28.512Z,74.70
2018-07-31T04:42:01.539Z,74.70
2018-07-31T04:42:34.559Z,74.80
2018-07-31T04:43:07.588Z,74.90
2018-07-31T04:43:41.380Z,75.40
2018-07-31T04:44:15.175Z,75.00
2018-07-31T04:44:48.967Z,75.00
2018-07-31T04:45:22.780Z,75.00
2018-07-31T04:45:56.573Z,75.10
2018-07-31T04:46:29.603Z,75.10
2018-07-31T04:47:02.636Z,75.00
2018-07-31T04:47:35.692Z,75.20
2018-07-31T04:48:08.732Z,75.20
2018-07-31T04:48:41.869Z,75.30
2018-07-31T04:49:16.341Z,75.40
2018-07-31T04:49:49.370Z,75.50
2018-07-31T04:50:24.220Z,75.50
2018-07-31T04:50:57.235Z,75.60
2018-07-31T04:51:30.283Z,75.50
2018-07-31T04:52:04.464Z,75.60
2018-07-31T04:52:43.797Z,76.70
2018-07-31T04:53:42.403Z,75.80
2018-07-31T04:55:10.802Z,75.60
2018-07-31T04:56:44.885Z,75.90
2018-07-31T04:57:17.875Z,76.90
2018-07-31T04:57:50.900Z,76.00
2018-07-31T04:58:24.700Z,76.90
2018-07-31T04:58:58.844Z,76.50
2018-07-31T04:59:32.177Z,76.50
2018-07-31T05:00:05.984Z,77.60
2018-07-31T05:00:39.024Z,77.50
2018-07-31T05:01:12.063Z,77.50
2018-07-31T05:01:45.098Z,77.10
2018-07-31T05:02:18.124Z,77.40
2018-07-31T05:02:51.162Z,77.50
2018-07-31T05:03:24.191Z,77.60
2018-07-31T05:03:58.725Z,78.70
2018-07-31T05:04:32.512Z,78.00
2018-07-31T05:05:05.568Z,78.00
2018-07-31T05:05:38.586Z,77.70
2018-07-31T05:06:11.613Z,77.80
2018-07-31T05:06:44.650Z,77.50
2018-07-31T05:07:17.671Z,77.90
2018-07-31T05:07:50.705Z,77.90
2018-07-31T05:08:23.732Z,77.90
2018-07-31T05:08:56.771Z,78.20
2018-07-31T05:09:29.809Z,78.10
2018-07-31T05:10:02.844Z,78.20
2018-07-31T05:10:35.907Z,78.30
2018-07-31T05:11:09.003Z,78.30
2018-07-31T05:11:41.990Z,78.40
2018-07-31T05:12:15.773Z,79.10
2018-07-31T05:12:48.794Z,78.50
2018-07-31T05:13:21.826Z,78.10
2018-07-31T05:13:54.847Z,78.50
2018-07-31T05:14:27.871Z,78.60
2018-07-31T05:15:01.683Z,78.50
2018-07-31T05:15:35.495Z,78.30
2018-07-31T05:16:08.540Z,78.30
2018-07-31T05:16:42.328Z,78.50
2018-07-31T05:17:15.371Z,78.50
2018-07-31T05:17:48.397Z,78.00
2018-07-31T05:18:22.267Z,78.70
2018-07-31T05:18:55.240Z,78.70
2018-07-31T05:19:28.264Z,78.50
2018-07-31T05:20:01.309Z,78.60
2018-07-31T05:20:35.635Z,78.50
2018-07-31T05:21:08.676Z,78.70
2018-07-31T05:21:42.490Z,78.80
2018-07-31T05:22:15.524Z,78.80
2018-07-31T05:22:48.571Z,79.70
2018-07-31T05:23:21.611Z,78.90
2018-07-31T05:23:54.642Z,79.00
2018-07-31T05:24:27.663Z,79.10
2018-07-31T05:25:00.691Z,79.00
2018-07-31T05:25:33.760Z,79.00
2018-07-31T05:26:06.787Z,79.10
2018-07-31T05:26:39.811Z,78.90
2018-07-31T05:27:12.851Z,79.30
2018-07-31T05:27:45.872Z,79.20
2018-07-31T05:28:18.907Z,79.20
2018-07-31T05:28:51.943Z,79.20
2018-07-31T05:29:25.727Z,79.40
2018-07-31T05:29:59.511Z,79.10
2018-07-31T05:30:32.567Z,79.10
2018-07-31T05:31:05.617Z,79.10
2018-07-31T05:31:38.691Z,79.00
2018-07-31T05:32:11.720Z,78.90
2018-07-31T05:32:45.540Z,79.10
2018-07-31T05:33:18.552Z,79.00
2018-07-31T05:33:51.574Z,79.00
2018-07-31T05:34:24.639Z,78.90
2018-07-31T05:34:58.435Z,78.80
2018-07-31T05:35:32.257Z,78.30
2018-07-31T05:36:05.283Z,78.30
2018-07-31T05:36:38.309Z,78.00
2018-07-31T05:37:11.331Z,77.80
2018-07-31T05:37:44.366Z,77.80
2018-07-31T05:38:17.412Z,77.80
2018-07-31T05:38:50.435Z,77.70
2018-07-31T05:39:23.644Z,77.30
2018-07-31T05:39:57.444Z,77.40
2018-07-31T05:40:31.258Z,77.60
2018-07-31T05:41:04.283Z,77.60
2018-07-31T05:41:37.318Z,77.30
2018-07-31T05:42:10.348Z,77.30
2018-07-31T05:42:43.535Z,77.60
2018-07-31T05:43:16.568Z,77.60
2018-07-31T05:43:49.620Z,77.50
2018-07-31T05:44:23.416Z,77.20
2018-07-31T05:44:56.432Z,77.20
2018-07-31T05:45:29.489Z,77.20
2018-07-31T05:46:02.518Z,77.20
2018-07-31T05:46:35.553Z,77.10
2018-07-31T05:47:08.612Z,77.00
2018-07-31T05:47:41.642Z,77.00
2018-07-31T05:48:14.675Z,76.40
2018-07-31T05:48:47.703Z,77.00
2018-07-31T05:49:20.741Z,77.00
2018-07-31T05:49:54.540Z,77.50
2018-07-31T05:50:28.353Z,76.70
2018-07-31T05:51:02.564Z,76.70
2018-07-31T05:51:36.214Z,76.60
2018-07-31T05:52:09.779Z,76.70
2018-07-31T05:52:42.811Z,76.90
2018-07-31T05:53:15.835Z,76.80
2018-07-31T05:53:48.877Z,76.70
2018-07-31T05:54:21.906Z,76.00
2018-07-31T05:54:54.925Z,76.20
2018-07-31T05:55:28.080Z,75.80
2018-07-31T05:56:01.124Z,75.70
2018-07-31T05:56:34.151Z,75.80
2018-07-31T05:57:07.176Z,75.50
2018-07-31T05:57:40.187Z,75.30
2018-07-31T05:58:13.224Z,74.90
2018-07-31T05:58:47.035Z,75.30
2018-07-31T05:59:20.843Z,74.60
2018-07-31T05:59:53.869Z,74.60
2018-07-31T06:00:26.911Z,74.90
2018-07-31T06:00:59.966Z,74.60
2018-07-31T06:01:32.984Z,74.40
2018-07-31T06:02:06.033Z,74.00
2018-07-31T06:02:39.099Z,73.40
2018-07-31T06:03:12.135Z,72.60
2018-07-31T06:03:45.924Z,72.90
2018-07-31T06:04:18.951Z,72.90
2018-07-31T06:04:51.985Z,72.70
2018-07-31T06:05:25.792Z,72.90
2018-07-31T06:05:59.580Z,72.40
2018-07-31T06:06:32.613Z,72.30
2018-07-31T06:07:05.656Z,71.60
2018-07-31T06:07:38.698Z,71.40
2018-07-31T06:08:12.513Z,71.30
2018-07-31T06:08:45.583Z,71.30
2018-07-31T06:09:19.593Z,71.40
2018-07-31T06:09:52.649Z,71.40
2018-07-31T06:10:26.426Z,71.70
2018-07-31T06:11:00.273Z,72.30
2018-07-31T06:11:33.317Z,72.30
2018-07-31T06:12:06.382Z,72.10
2018-07-31T06:12:39.420Z,71.50
2018-07-31T06:13:12.449Z,71.70
2018-07-31T06:13:45.472Z,72.20
2018-07-31T06:14:18.513Z,72.40
2018-07-31T06:14:52.384Z,71.70
2018-07-31T06:15:25.424Z,71.30
2018-07-31T06:15:58.448Z,71.60
2018-07-31T06:16:31.508Z,72.70
2018-07-31T06:17:04.548Z,72.30
2018-07-31T06:17:37.573Z,72.60
2018-07-31T06:18:10.603Z,71.00
2018-07-31T06:18:43.627Z,71.10
2018-07-31T06:19:16.672Z,71.00
2018-07-31T06:19:49.695Z,69.70
2018-07-31T06:20:22.727Z,69.20
2018-07-31T06:20:55.753Z,70.10
2018-07-31T06:21:28.775Z,71.40
2018-07-31T06:22:01.955Z,71.30
2018-07-31T06:22:34.983Z,71.20
2018-07-31T06:23:08.008Z,69.90
2018-07-31T06:23:41.759Z,69.40
2018-07-31T06:24:14.796Z,69.90
2018-07-31T06:24:47.816Z,68.30
2018-07-31T06:25:21.616Z,68.30
2018-07-31T06:25:55.408Z,70.00
2018-07-31T06:26:29.218Z,68.90
2018-07-31T06:27:02.945Z,68.90
2018-07-31T06:27:36.683Z,70.60
2018-07-31T06:28:10.467Z,69.00
2018-07-31T06:28:43.493Z,69.00
2018-07-31T06:29:16.517Z,68.70
2018-07-31T06:29:50.320Z,68.50
2018-07-31T06:30:24.120Z,69.90
2018-07-31T06:30:57.154Z,69.90
2018-07-31T06:31:30.212Z,69.10
2018-07-31T06:32:03.264Z,70.80
2018-07-31T06:32:36.293Z,71.00
2018-07-31T06:33:09.492Z,71.50
2018-07-31T06:33:42.532Z,68.00
2018-07-31T06:34:16.344Z,67.70
2018-07-31T06:34:51.091Z,67.90
2018-07-31T06:35:24.141Z,68.00
2018-07-31T06:35:57.940Z,68.60
2018-07-31T06:36:30.980Z,68.60
2018-07-31T06:37:04.028Z,68.00
2018-07-31T06:37:37.064Z,67.60
2018-07-31T06:38:10.872Z,67.20
2018-07-31T06:38:43.912Z,67.20
2018-07-31T06:39:17.045Z,67.90
2018-07-31T06:39:50.064Z,68.40
2018-07-31T06:40:23.884Z,68.10
2018-07-31T06:40:57.691Z,68.00
2018-07-31T06:41:30.727Z,68.00
2018-07-31T06:42:04.525Z,67.10
2018-07-31T06:42:38.326Z,67.70
2018-07-31T06:43:11.351Z,67.70
2018-07-31T06:43:44.384Z,68.30
2018-07-31T06:44:17.428Z,68.50
2018-07-31T06:44:50.462Z,68.90
2018-07-31T06:45:23.487Z,68.10
2018-07-31T06:45:57.314Z,67.80
2018-07-31T06:46:30.355Z,67.80
2018-07-31T06:47:04.163Z,67.90
2018-07-31T06:47:37.219Z,67.90
2018-07-31T06:48:11.035Z,67.60
2018-07-31T06:48:44.071Z,67.60
2018-07-31T06:49:17.152Z,68.30
2018-07-31T06:49:50.120Z,68.10
2018-07-31T06:50:23.151Z,67.70
2018-07-31T06:50:56.758Z,67.70
2018-07-31T06:51:29.803Z,67.60
2018-07-31T06:52:02.836Z,67.00
2018-07-31T06:52:35.867Z,67.40
2018-07-31T06:53:08.900Z,67.50
2018-07-31T06:53:42.696Z,68.30
2018-07-31T06:54:16.492Z,68.00
2018-07-31T06:54:50.616Z,67.20
2018-07-31T06:55:23.640Z,67.20
2018-07-31T06:55:56.685Z,67.10
2018-07-31T06:56:30.286Z,65.90
2018-07-31T06:57:03.338Z,66.20
2018-07-31T06:57:36.399Z,65.50
2018-07-31T06:58:09.685Z,65.80
2018-07-31T06:58:42.709Z,65.00
2018-07-31T06:59:15.744Z,66.10
2018-07-31T06:59:48.767Z,65.90
2018-07-31T07:00:22.555Z,66.40
2018-07-31T07:00:55.687Z,66.40
2018-07-31T07:01:28.731Z,66.30
2018-07-31T07:02:01.806Z,65.70
2018-07-31T07:02:34.821Z,65.70
2018-07-31T07:03:08.604Z,65.20
2018-07-31T07:03:41.645Z,65.20
2018-07-31T07:04:14.715Z,65.70
2018-07-31T07:04:48.526Z,66.80
2018-07-31T07:05:21.548Z,66.70
2018-07-31T07:05:54.601Z,66.90
2018-07-31T07:06:27.640Z,66.50
2018-07-31T07:07:00.686Z,65.80
2018-07-31T07:07:33.707Z,65.70
2018-07-31T07:08:06.739Z,65.50
2018-07-31T07:08:40.530Z,65.00
2018-07-31T07:09:13.558Z,65.00
2018-07-31T07:09:46.796Z,64.60
2018-07-31T07:10:19.877Z,65.10